Time;durP1;ratioP1;P1;durP2;ratioP2;P2;SDS_P1;SDS_P2;PMS_P1;PMS_P2;Temp;Humidity;BMP_temperature;BMP_pressure;BME280_temperature;BME280_humidity;BME280_pressure;Samples;Min_cycle;Max_cycle;Signal;HPM_P1;HPM_P2
2023/03/20 00:01:16;;;;;;;;;39.00;35.50;;;;;10.23;50.63;101692.78;5004854;28;45716;-59
2023/03/20 00:03:42;;;;;;;;;39.75;35.00;;;;;10.23;50.76;101697.19;5012205;28;45344;-59
2023/03/20 00:06:15;;;;;;;;;39.00;32.50;;;;;10.20;50.76;101689.28;5018732;28;45445;-60
2023/03/20 00:08:41;;;;;;;;;37.50;33.50;;;;;10.18;50.56;101704.16;5018725;28;45290;-60
2023/03/20 00:11:25;;;;;;;;;46.50;36.25;;;;;10.16;50.78;101711.16;5018835;28;45232;-59
2023/03/20 00:13:52;;;;;;;;;37.50;32.75;;;;;10.15;50.74;101709.41;5018630;28;45244;-59
2023/03/20 00:16:19;;;;;;;;;50.00;39.00;;;;;10.13;50.57;101705.91;5018636;28;45421;-59
2023/03/20 00:18:44;;;;;;;;;40.25;36.00;;;;;10.11;50.79;101694.50;5018625;28;45523;-60
2023/03/20 00:21:18;;;;;;;;;41.25;34.00;;;;;10.09;50.69;101705.88;5018651;28;45471;-59
2023/03/20 00:23:44;;;;;;;;;39.00;34.25;;;;;10.07;50.92;101714.63;5018410;28;46915;-59
2023/03/20 00:26:17;;;;;;;;;38.25;34.50;;;;;10.04;50.68;101707.63;5018374;28;45446;-59
2023/03/20 00:28:45;;;;;;;;;42.00;36.50;;;;;10.01;50.97;101712.88;5018504;28;45428;-60
2023/03/20 00:31:20;;;;;;;;;39.75;35.00;;;;;9.97;50.97;101718.97;5018520;28;45389;-59
2023/03/20 00:33:46;;;;;;;;;41.75;36.25;;;;;9.97;51.09;101732.09;5016404;28;45592;-59
2023/03/20 00:36:11;;;;;;;;;45.75;35.25;;;;;9.94;51.17;101718.97;5018576;28;45232;-59
2023/03/20 00:38:36;;;;;;;;;33.50;32.00;;;;;9.92;50.87;101723.31;5018578;28;45332;-59
2023/03/20 00:41:04;;;;;;;;;45.75;37.75;;;;;9.89;51.06;101718.06;5018345;28;45387;-59
2023/03/20 00:43:30;;;;;;;;;44.00;38.25;;;;;9.86;51.20;101710.16;5018008;28;46332;-59
2023/03/20 00:45:55;;;;;;;;;42.75;36.25;;;;;9.83;51.29;101704.91;5018373;28;45258;-59
2023/03/20 00:48:21;;;;;;;;;46.25;37.25;;;;;9.80;51.01;101711.03;5018227;28;45311;-59
2023/03/20 00:50:46;;;;;;;;;43.00;36.25;;;;;9.79;51.21;101718.91;5013145;28;57447;-59
2023/03/20 00:53:11;;;;;;;;;45.00;37.25;;;;;9.75;51.28;101708.38;5010943;28;45287;-59
2023/03/20 00:55:39;;;;;;;;;42.50;34.50;;;;;9.74;51.20;101718.88;5012035;28;45197;-59
2023/03/20 00:58:05;;;;;;;;;46.25;39.00;;;;;9.71;51.33;101708.34;5018090;28;45242;-59
2023/03/20 01:00:40;;;;;;;;;46.50;37.50;;;;;9.70;51.17;101706.63;5009122;28;45568;-59
2023/03/20 01:03:12;;;;;;;;;42.75;37.25;;;;;9.68;51.27;101711.84;5006893;28;47352;-59
2023/03/20 01:05:38;;;;;;;;;47.50;38.75;;;;;9.65;51.48;101705.69;5017881;28;45235;-59
2023/03/20 01:08:11;;;;;;;;;43.75;38.00;;;;;9.63;51.24;101710.06;5018204;28;45310;-59
2023/03/20 01:10:37;;;;;;;;;46.00;39.00;;;;;9.62;51.45;101714.44;5017952;28;45223;-60
2023/03/20 01:13:02;;;;;;;;;45.75;37.75;;;;;9.60;51.44;101708.31;5017736;28;45505;-59
2023/03/20 01:15:31;;;;;;;;;50.50;40.00;;;;;9.54;51.21;101703.03;5016601;28;45258;-59
2023/03/20 01:17:57;;;;;;;;;53.25;40.00;;;;;9.55;51.50;101718.78;5018247;28;45303;-60
2023/03/20 01:20:26;;;;;;;;;50.75;41.75;;;;;9.53;51.53;101714.38;5017842;28;45416;-59
2023/03/20 01:22:53;;;;;;;;;49.00;41.25;;;;;9.52;51.51;101713.53;5033104;28;46149;-59
2023/03/20 01:25:19;;;;;;;;;49.75;41.50;;;;;9.51;51.43;101713.50;5017532;28;45479;-60
2023/03/20 01:27:49;;;;;;;;;53.75;44.25;;;;;9.49;51.53;101718.72;5017692;28;45240;-59
2023/03/20 01:30:27;;;;;;;;;51.75;42.50;;;;;9.49;51.68;101725.75;5017728;28;45421;-59
2023/03/20 01:32:53;;;;;;;;;48.75;34.50;;;;;9.48;51.41;101718.72;5017958;28;46343;-59
2023/03/20 01:35:24;;;;;;;;;49.75;42.50;;;;;9.48;51.39;101710.88;5017079;28;45266;-59
2023/03/20 01:37:51;;;;;;;;;47.75;38.75;;;;;9.45;51.61;101711.72;5017918;28;45405;-59
2023/03/20 01:40:38;;;;;;;;;53.75;42.75;;;;;9.44;51.73;101715.22;5017616;28;45626;-59
2023/03/20 01:43:13;;;;;;;;;51.00;42.50;;;;;9.41;51.78;101721.31;5016188;28;45350;-59
2023/03/20 01:45:49;;;;;;;;;51.00;41.50;;;;;9.40;51.74;101716.94;5032835;28;45344;-59
2023/03/20 01:48:17;;;;;;;;;53.50;43.25;;;;;9.36;51.53;101711.69;5017281;28;45499;-59
2023/03/20 01:50:42;;;;;;;;;53.75;42.75;;;;;9.36;51.81;101720.41;5013054;28;45334;-59
2023/03/20 01:53:15;;;;;;;;;55.25;43.00;;;;;9.35;51.84;101718.66;5009491;28;46146;-59
2023/03/20 01:55:44;;;;;;;;;53.25;41.00;;;;;9.36;51.79;101714.31;5011713;28;45360;-59
2023/03/20 01:58:18;;;;;;;;;51.00;41.00;;;;;9.31;51.86;101705.50;5017531;28;45316;-59
2023/03/20 02:00:44;;;;;;;;;51.75;42.25;;;;;9.32;51.96;101709.88;5006709;28;45331;-59
2023/03/20 02:03:11;;;;;;;;;51.00;40.25;;;;;9.26;52.07;101701.09;5007238;28;46549;-59
2023/03/20 02:05:37;;;;;;;;;55.50;43.75;;;;;9.25;52.01;101701.97;5017214;28;45402;-59
2023/03/20 02:08:28;;;;;;;;;54.25;42.50;;;;;9.24;52.03;101712.47;5017576;28;45324;-59
2023/03/20 02:10:55;;;;;;;;;50.75;39.50;;;;;9.19;51.97;101714.16;5017277;28;45413;-59
2023/03/20 02:13:22;;;;;;;;;48.75;41.00;;;;;9.15;51.88;101704.53;5017078;28;45242;-59
2023/03/20 02:15:58;;;;;;;;;51.25;41.50;;;;;9.15;51.83;101713.28;5017309;28;45164;-60
2023/03/20 02:18:24;;;;;;;;;49.25;40.25;;;;;9.13;52.06;101708.88;5017394;28;45226;-59
2023/03/20 02:21:20;;;;;;;;;49.50;38.00;;;;;9.10;51.98;101701.88;5017296;28;45366;-59
2023/03/20 02:24:32;;;;;;;;;49.25;41.75;;;;;9.05;52.23;101704.44;5016978;28;45450;-59
2023/03/20 02:27:12;;;;;;;;;48.75;38.75;;;;;9.02;52.04;101693.94;5016755;28;45284;-59
2023/03/20 02:29:47;;;;;;;;;46.75;40.00;;;;;8.99;52.05;101693.91;5017088;28;45326;-59
2023/03/20 02:32:45;;;;;;;;;46.25;39.00;;;;;8.96;51.93;101691.28;5016918;28;45492;-59
2023/03/20 02:35:55;;;;;;;;;48.50;38.50;;;;;8.92;52.31;101697.38;5016799;28;46232;-59
2023/03/20 02:38:23;;;;;;;;;45.50;39.00;;;;;8.89;52.08;101689.47;4994933;28;45481;-59
2023/03/20 02:41:36;;;;;;;;;45.00;36.00;;;;;8.85;52.40;101693.81;4994806;28;45436;-59
2023/03/20 02:44:09;;;;;;;;;45.50;38.25;;;;;8.78;52.25;101685.03;5012513;28;45400;-59
2023/03/20 02:46:50;;;;;;;;;48.50;41.50;;;;;8.81;52.16;101692.03;5017082;28;46199;-59
2023/03/20 02:49:34;;;;;;;;;50.00;40.50;;;;;8.79;52.02;101688.50;5016392;28;45177;-59
2023/03/20 02:52:09;;;;;;;;;48.50;39.00;;;;;8.76;52.43;101681.50;5019871;28;45334;-59
2023/03/20 02:54:55;;;;;;;;;43.00;36.00;;;;;8.74;52.43;101688.50;5006162;28;45322;-59
2023/03/20 02:57:34;;;;;;;;;50.00;39.00;;;;;8.74;52.37;101688.50;5018229;28;46180;-59
2023/03/20 03:00:12;;;;;;;;;50.50;42.25;;;;;8.74;52.42;101688.50;5015062;28;45762;-58
2023/03/20 03:02:42;;;;;;;;;53.50;43.00;;;;;8.74;52.14;101691.13;5004262;28;45402;-59
2023/03/20 03:05:21;;;;;;;;;44.75;36.50;;;;;8.72;52.26;101692.84;5019635;28;45421;-60
2023/03/20 03:07:50;;;;;;;;;50.25;39.50;;;;;8.68;52.39;101687.53;5019574;28;45334;-59
2023/03/20 03:10:26;;;;;;;;;46.75;39.50;;;;;8.68;52.35;101696.31;5019233;28;45263;-59
2023/03/20 03:12:53;;;;;;;;;47.25;39.25;;;;;8.69;52.21;101686.69;5019543;28;45544;-59
2023/03/20 03:15:26;;;;;;;;;47.50;38.50;;;;;8.67;52.33;101689.28;5017732;28;45258;-59
2023/03/20 03:17:52;;;;;;;;;47.00;39.50;;;;;8.68;52.54;101682.31;5019460;28;46298;-59
2023/03/20 03:20:38;;;;;;;;;48.25;36.25;;;;;8.67;52.40;101685.81;5019268;28;45374;-59
2023/03/20 03:23:05;;;;;;;;;49.50;40.50;;;;;8.64;52.43;101678.81;5019485;28;45214;-59
2023/03/20 03:25:39;;;;;;;;;40.25;36.25;;;;;8.62;52.46;101676.16;5019017;28;45450;-59
2023/03/20 03:28:15;;;;;;;;;45.00;37.00;;;;;8.62;52.18;101683.13;5019002;28;46120;-59
2023/03/20 03:30:42;;;;;;;;;41.25;35.00;;;;;8.59;52.51;101685.72;5017913;28;45292;-59
2023/03/20 03:33:20;;;;;;;;;46.00;38.25;;;;;8.57;52.49;101683.09;5019362;28;45480;-59
2023/03/20 03:35:46;;;;;;;;;46.25;38.25;;;;;8.55;52.48;101679.59;5019410;28;45248;-59
2023/03/20 03:38:30;;;;;;;;;39.50;35.50;;;;;8.56;52.51;101677.84;5019143;28;45295;-59
2023/03/20 03:41:07;;;;;;;;;35.75;33.25;;;;;8.54;52.51;101677.84;5018999;28;45452;-59
2023/03/20 03:43:55;;;;;;;;;37.25;34.75;;;;;8.52;52.68;101676.06;5019382;28;45228;-59
2023/03/20 03:46:52;;;;;;;;;38.25;35.00;;;;;8.47;52.73;101676.00;5018951;28;45355;-59
2023/03/20 03:49:29;;;;;;;;;41.25;35.75;;;;;8.47;52.85;101676.00;5026863;28;47335;-60
2023/03/20 03:52:04;;;;;;;;;40.25;35.25;;;;;8.47;52.62;101681.25;5019141;28;45260;-59
2023/03/20 03:54:35;;;;;;;;;34.50;32.50;;;;;8.41;52.75;101670.69;5005620;28;45359;-59
2023/03/20 03:57:04;;;;;;;;;35.00;32.75;;;;;8.40;52.80;101674.16;5018897;28;45378;-59
2023/03/20 03:59:36;;;;;;;;;37.25;35.25;;;;;8.37;52.83;101675.00;5017845;28;46246;-59
2023/03/20 04:02:04;;;;;;;;;37.50;33.50;;;;;8.36;52.72;101664.53;4999099;28;45319;-59
2023/03/20 04:04:32;;;;;;;;;34.25;32.00;;;;;8.32;52.85;101673.22;5006138;28;45348;-59
2023/03/20 04:06:58;;;;;;;;;6.00;3.00;;;;;8.27;52.73;101662.69;5019161;28;45329;-59
2023/03/20 04:09:23;;;;;;;;;34.25;32.00;;;;;8.29;52.86;101671.44;5018680;28;46074;-59
2023/03/20 04:11:51;;;;;;;;;39.00;32.00;;;;;8.25;52.67;101672.25;5018703;28;45230;-59
2023/03/20 04:14:17;;;;;;;;;39.50;33.00;;;;;8.24;52.70;101675.78;5018986;28;45345;-59
2023/03/20 04:16:42;;;;;;;;;34.25;33.25;;;;;8.22;52.80;101678.34;5018630;28;45552;-59
2023/03/20 04:19:08;;;;;;;;;35.75;34.25;;;;;8.20;52.80;101676.56;5018604;28;49499;-59
2023/03/20 04:21:33;;;;;;;;;38.00;35.50;;;;;8.17;52.63;101676.56;5018722;28;45475;-59
2023/03/20 04:23:58;;;;;;;;;37.50;34.75;;;;;8.16;52.64;101680.91;5018617;28;45538;-59
2023/03/20 04:26:24;;;;;;;;;38.00;35.50;;;;;8.18;52.97;101689.66;5018441;28;45291;-59
2023/03/20 04:28:50;;;;;;;;;40.75;34.25;;;;;8.17;52.79;101690.50;5018380;28;45319;-59
2023/03/20 04:31:16;;;;;;;;;38.25;33.75;;;;;8.14;52.77;101688.75;5017328;28;45258;-60
2023/03/20 04:33:42;;;;;;;;;40.75;34.00;;;;;8.11;52.67;101691.34;5018691;28;45311;-59
2023/03/20 04:36:08;;;;;;;;;39.00;33.00;;;;;8.14;52.81;101698.34;5018524;28;45213;-59
2023/03/20 04:38:34;;;;;;;;;39.50;33.25;;;;;8.14;52.81;101708.81;5018392;28;46982;-59
2023/03/20 04:40:59;;;;;;;;;36.00;34.00;;;;;8.13;52.83;101704.44;5018349;28;45330;-59
2023/03/20 04:43:24;;;;;;;;;38.50;33.00;;;;;8.10;52.63;101697.44;5018391;28;45781;-59
2023/03/20 04:45:50;;;;;;;;;40.00;35.50;;;;;8.10;52.90;101697.44;5018286;28;45162;-59
2023/03/20 04:48:15;;;;;;;;;35.25;32.00;;;;;8.08;52.93;101690.41;5018067;28;46096;-59
2023/03/20 04:50:41;;;;;;;;;38.75;34.25;;;;;8.07;52.86;101694.75;5029491;28;45339;-59
2023/03/20 04:53:06;;;;;;;;;35.75;32.50;;;;;8.07;52.80;101696.50;5011477;28;45330;-59
2023/03/20 04:55:32;;;;;;;;;34.50;30.00;;;;;8.04;52.97;101697.34;5016950;28;45591;-59
2023/03/20 04:57:57;;;;;;;;;34.50;32.25;;;;;8.05;52.84;101693.88;5017922;28;46370;-59
2023/03/20 05:00:22;;;;;;;;;35.50;32.75;;;;;8.04;52.95;101696.50;5010157;28;51242;-59
2023/03/20 05:02:48;;;;;;;;;35.50;32.75;;;;;8.05;52.99;101693.00;5004290;28;45268;-59
2023/03/20 05:05:13;;;;;;;;;33.25;32.25;;;;;8.06;53.14;101694.75;5018138;28;45623;-59
2023/03/20 05:07:39;;;;;;;;;35.50;33.25;;;;;8.05;52.89;101699.13;5017939;28;46117;-59
2023/03/20 05:10:05;;;;;;;;;30.75;29.00;;;;;8.04;52.93;101688.63;5016848;28;45310;-59
2023/03/20 05:12:30;;;;;;;;;33.50;30.75;;;;;8.03;52.90;101686.88;5017966;28;45224;-59
2023/03/20 05:14:56;;;;;;;;;32.50;28.25;;;;;8.03;53.29;101682.50;5017930;28;45167;-59
2023/03/20 05:17:22;;;;;;;;;33.50;31.00;;;;;8.02;53.11;101687.72;5017867;28;45198;-59
2023/03/20 05:19:48;;;;;;;;;32.00;30.00;;;;;8.02;52.94;101688.59;5017976;28;45177;-59
2023/03/20 05:22:14;;;;;;;;;31.50;29.50;;;;;7.99;53.17;101680.72;5018122;28;45193;-59
2023/03/20 05:24:40;;;;;;;;;35.00;32.00;;;;;8.02;53.12;101687.72;5017725;28;45235;-59
2023/03/20 05:27:05;;;;;;;;;27.00;26.00;;;;;8.00;53.35;101685.09;4999105;28;45468;-59
2023/03/20 05:29:30;;;;;;;;;29.50;28.00;;;;;7.96;53.13;101672.81;4998597;28;45377;-59
2023/03/20 05:31:56;;;;;;;;;34.00;31.75;;;;;7.98;53.30;101684.19;5002970;28;45417;-59
2023/03/20 05:34:21;;;;;;;;;30.25;28.50;;;;;7.95;53.21;101687.66;5017914;28;45455;-59
2023/03/20 05:36:47;;;;;;;;;26.25;26.25;;;;;7.96;53.22;101685.91;5017418;28;47347;-59
2023/03/20 05:39:12;;;;;;;;;27.25;27.00;;;;;7.93;53.44;101685.88;5017464;28;45350;-59
2023/03/20 05:41:38;;;;;;;;;24.50;24.50;;;;;7.91;53.35;101685.88;5017594;28;45348;-60
2023/03/20 05:44:03;;;;;;;;;27.50;25.25;;;;;7.93;53.23;101689.38;5017672;28;45742;-59
2023/03/20 05:46:29;;;;;;;;;35.50;29.75;;;;;7.92;53.40;101686.75;5017198;28;46224;-59
2023/03/20 05:48:54;;;;;;;;;30.25;26.00;;;;;7.87;53.27;101678.81;5013873;28;45259;-59
2023/03/20 05:51:20;;;;;;;;;28.50;23.25;;;;;7.91;53.46;101691.13;5015650;28;45409;-59
2023/03/20 05:53:45;;;;;;;;;33.75;28.75;;;;;7.90;53.45;101689.34;5006021;28;45340;-59
2023/03/20 05:56:10;;;;;;;;;27.00;22.75;;;;;7.90;53.53;101688.44;5015610;28;45578;-59
2023/03/20 05:58:36;;;;;;;;;23.75;23.00;;;;;7.88;53.47;101692.81;5017452;28;45242;-59
2023/03/20 06:01:01;;;;;;;;;27.75;26.75;;;;;7.84;53.46;101684.03;5004343;28;45390;-59
2023/03/20 06:03:27;;;;;;;;;30.25;28.75;;;;;7.86;53.33;101697.13;5009676;28;45414;-59
2023/03/20 06:05:52;;;;;;;;;25.00;22.75;;;;;7.84;53.41;101702.34;5017170;28;46026;-59
2023/03/20 06:08:17;;;;;;;;;30.25;29.25;;;;;7.85;53.51;101701.50;5017391;28;45200;-59
2023/03/20 06:10:43;;;;;;;;;32.50;22.00;;;;;7.85;53.38;101701.50;5017345;28;45223;-61
2023/03/20 06:13:08;;;;;;;;;27.50;25.25;;;;;7.83;53.47;101691.88;5017105;28;45426;-61
2023/03/20 06:15:33;;;;;;;;;28.50;24.50;;;;;7.85;53.46;101703.22;5017145;28;45416;-61
2023/03/20 06:17:59;;;;;;;;;32.00;27.25;;;;;7.83;53.58;101700.59;5017263;28;45311;-62
2023/03/20 06:20:25;;;;;;;;;31.00;25.25;;;;;7.79;53.80;101697.06;5017037;28;45284;-61
2023/03/20 06:22:50;;;;;;;;;30.25;25.00;;;;;7.79;53.76;101702.28;5017517;28;45567;-59
2023/03/20 06:25:16;;;;;;;;;33.25;25.00;;;;;7.83;53.72;101703.22;5015566;28;47200;-59
2023/03/20 06:27:41;;;;;;;;;30.25;27.75;;;;;7.82;54.00;101706.69;5016878;28;45271;-59
2023/03/20 06:30:08;;;;;;;;;30.50;26.50;;;;;7.80;53.61;101709.28;5017092;28;45739;-59
2023/03/20 06:32:33;;;;;;;;;23.00;20.50;;;;;7.81;53.68;101710.16;5019490;27;45544;-61
2023/03/20 06:34:59;;;;;;;;;25.50;24.50;;;;;7.82;53.58;101711.91;5016674;28;51914;-61
2023/03/20 06:37:24;;;;;;;;;29.00;24.00;;;;;7.83;53.60;101718.91;5016955;28;45376;-60
2023/03/20 06:39:50;;;;;;;;;24.25;24.25;;;;;7.81;53.84;101721.50;5015493;28;45821;-60
2023/03/20 06:42:15;;;;;;;;;28.50;23.75;;;;;7.83;53.70;101715.44;4998748;27;45536;-60
2023/03/20 06:44:41;;;;;;;;;32.00;27.00;;;;;7.83;53.82;101718.03;4997190;28;46301;-59
2023/03/20 06:47:06;;;;;;;;;27.50;26.75;;;;;7.79;53.74;101718.00;4995324;28;45599;-60
2023/03/20 06:49:31;;;;;;;;;23.00;22.00;;;;;7.81;53.79;101711.03;5000811;27;45383;-61
2023/03/20 06:51:58;;;;;;;;;25.00;22.00;;;;;7.81;53.76;101711.03;4996794;28;45158;-60
2023/03/20 06:54:23;;;;;;;;;30.00;23.00;;;;;7.82;53.74;101711.91;5005319;27;45999;-59
2023/03/20 06:56:49;;;;;;;;;26.50;24.00;;;;;7.80;53.86;101708.41;4996349;28;45207;-61
2023/03/20 06:59:14;;;;;;;;;28.75;24.25;;;;;7.81;53.95;101711.03;5010508;28;45479;-60
2023/03/20 07:01:39;;;;;;;;;26.25;25.50;;;;;7.78;53.77;101697.91;4996160;28;51280;-60
2023/03/20 07:04:05;;;;;;;;;23.25;21.50;;;;;7.81;53.87;101703.19;4996503;28;46303;-60
2023/03/20 07:06:31;;;;;;;;;24.25;23.00;;;;;7.81;53.84;101702.31;4996279;28;45433;-59
2023/03/20 07:08:56;;;;;;;;;25.25;20.00;;;;;7.82;53.93;101706.69;5001325;28;45939;-60
2023/03/20 07:11:22;;;;;;;;;31.00;27.00;;;;;7.81;53.84;101708.44;5002075;28;45532;-60
2023/03/20 07:13:47;;;;;;;;;22.25;21.50;;;;;7.80;53.63;101714.53;5000024;28;45976;-59
2023/03/20 07:16:13;;;;;;;;;30.00;23.50;;;;;7.80;54.06;101716.28;4997048;28;45518;-60
2023/03/20 07:18:38;;;;;;;;;23.75;20.25;;;;;7.76;53.96;101710.13;4996537;28;45451;-59
2023/03/20 07:21:05;;;;;;;;;21.50;18.75;;;;;7.84;54.16;101725.03;4996228;28;45270;-59
2023/03/20 07:23:33;;;;;;;;;25.00;21.50;;;;;7.85;54.14;101725.06;5011014;28;46923;-59
2023/03/20 07:25:58;;;;;;;;;18.75;18.75;;;;;7.88;54.44;101734.69;4995638;28;45485;-59
2023/03/20 07:28:23;;;;;;;;;23.50;20.00;;;;;7.91;53.95;101735.59;5000966;28;45373;-59
2023/03/20 07:30:49;;;;;;;;;18.75;16.00;;;;;7.96;53.88;101733.03;4996245;28;45202;-59
2023/03/20 07:33:14;;;;;;;;;23.25;19.75;;;;;7.97;54.15;101726.94;4995654;28;46281;-59
2023/03/20 07:35:40;;;;;;;;;16.25;15.00;;;;;8.02;54.25;101729.63;4997627;28;45401;-59
2023/03/20 07:38:05;;;;;;;;;28.25;22.25;;;;;8.03;54.25;101721.78;4997866;28;45947;-59
2023/03/20 07:40:32;;;;;;;;;24.50;20.50;;;;;8.07;54.36;101723.56;4997479;28;45723;-59
2023/03/20 07:42:57;;;;;;;;;21.50;21.00;;;;;8.11;54.11;101728.00;4995867;28;45504;-59
2023/03/20 07:45:22;;;;;;;;;21.00;18.75;;;;;8.16;54.31;101727.16;5005208;27;46363;-59
2023/03/20 07:47:48;;;;;;;;;19.75;16.25;;;;;8.19;54.06;101724.56;5012966;28;45541;-57
2023/03/20 07:50:14;;;;;;;;;19.75;16.50;;;;;8.19;54.04;101725.47;4996142;27;45462;-60
2023/03/20 07:52:40;;;;;;;;;17.50;16.50;;;;;8.23;54.17;101721.13;4997445;28;45441;-59
2023/03/20 07:55:06;;;;;;;;;19.25;16.75;;;;;8.31;54.40;101722.09;4997332;28;45594;-59
2023/03/20 07:57:32;;;;;;;;;25.00;20.25;;;;;8.36;54.16;101722.16;4997860;28;45436;-59
2023/03/20 07:59:57;;;;;;;;;20.00;16.75;;;;;8.41;53.97;101728.31;4998580;28;45515;-58
2023/03/20 08:02:22;;;;;;;;;20.75;18.25;;;;;8.44;54.39;101716.13;4999214;28;45450;-59
2023/03/20 08:04:48;;;;;;;;;25.50;22.25;;;;;8.47;54.28;101707.44;4999511;28;45237;-59
2023/03/20 08:07:13;;;;;;;;;22.25;21.50;;;;;8.54;54.40;101711.00;4997648;28;45296;-57
2023/03/20 08:09:38;;;;;;;;;33.50;29.50;;;;;8.60;54.46;101716.31;4998239;28;45417;-57
2023/03/20 08:12:04;;;;;;;;;26.25;26.25;;;;;8.60;54.35;101714.56;4998871;28;45366;-57
2023/03/20 08:14:30;;;;;;;;;27.75;27.25;;;;;8.68;54.56;101717.25;4999259;28;45239;-57
2023/03/20 08:16:55;;;;;;;;;24.25;21.75;;;;;8.73;54.21;101715.56;4997441;28;45482;-56
2023/03/20 08:19:20;;;;;;;;;21.00;21.00;;;;;8.76;54.46;101723.44;4997921;28;45703;-57
2023/03/20 08:21:46;;;;;;;;;24.75;22.25;;;;;8.82;54.46;101729.59;4998813;28;45696;-57
2023/03/20 08:24:11;;;;;;;;;20.50;19.75;;;;;8.87;54.45;101722.69;4999149;28;45414;-57
2023/03/20 08:26:36;;;;;;;;;19.00;16.75;;;;;8.92;54.64;101720.97;4996974;28;45318;-57
2023/03/20 08:29:02;;;;;;;;;23.25;19.50;;;;;8.96;54.52;101717.50;4998289;28;45451;-57
2023/03/20 08:31:27;;;;;;;;;21.25;19.00;;;;;8.99;54.62;101721.88;5000577;28;46131;-57
2023/03/20 08:33:54;;;;;;;;;20.75;18.25;;;;;9.07;54.42;101730.72;4999582;28;45248;-57
2023/03/20 08:36:20;;;;;;;;;16.25;14.75;;;;;9.14;54.53;101742.97;4999708;28;45402;-57
2023/03/20 08:38:46;;;;;;;;;18.25;15.50;;;;;9.11;54.20;101730.72;4999256;28;45336;-57
2023/03/20 08:41:11;;;;;;;;;16.75;15.25;;;;;9.21;54.30;101747.41;5000078;28;45388;-57
2023/03/20 08:43:37;;;;;;;;;20.25;15.50;;;;;9.27;54.48;101747.47;4996003;27;45326;-57
2023/03/20 08:46:02;;;;;;;;;16.50;15.25;;;;;9.30;54.48;101748.34;4996959;28;49884;-57
2023/03/20 08:48:28;;;;;;;;;20.50;16.75;;;;;9.34;54.44;101751.00;4997654;28;45313;-56
2023/03/20 08:50:53;;;;;;;;;20.00;18.00;;;;;9.38;54.30;101747.53;4996875;27;45444;-57
2023/03/20 08:53:18;;;;;;;;;14.25;13.25;;;;;9.43;54.31;101755.44;4997883;28;45384;-56
2023/03/20 08:55:51;;;;;;;;;18.50;16.50;;;;;9.49;54.44;101759.84;4997133;27;45648;-57
2023/03/20 08:58:17;;;;;;;;;17.00;16.00;;;;;9.51;54.50;101756.38;5012992;27;45416;-57
2023/03/20 09:00:43;;;;;;;;;13.25;11.00;;;;;9.57;54.48;101747.63;5031726;27;45368;-57
2023/03/20 09:03:13;;;;;;;;;19.00;16.50;;;;;9.64;54.58;101753.81;5003388;28;45632;-57
2023/03/20 09:05:39;;;;;;;;;19.00;16.00;;;;;9.69;54.63;101749.47;5017467;28;45373;-57
2023/03/20 09:08:04;;;;;;;;;16.75;15.50;;;;;9.73;54.40;101749.47;5010647;28;45565;-57
2023/03/20 09:10:29;;;;;;;;;9.00;9.00;;;;;9.80;54.27;101742.53;5017778;28;46075;-57
2023/03/20 09:12:55;;;;;;;;;17.00;15.00;;;;;9.83;54.60;101747.78;5018018;28;45282;-57
2023/03/20 09:15:20;;;;;;;;;14.00;13.00;;;;;9.88;54.61;101742.56;5013842;28;45517;-57
2023/03/20 09:17:45;;;;;;;;;14.25;11.50;;;;;9.95;54.64;101738.22;5005210;28;45479;-57
2023/03/20 09:20:11;;;;;;;;;14.00;14.00;;;;;9.99;54.49;101735.63;5017475;28;45434;-57
2023/03/20 09:22:36;;;;;;;;;17.00;15.25;;;;;10.05;54.52;101734.75;5017872;28;45241;-59
2023/03/20 09:25:02;;;;;;;;;13.75;12.50;;;;;10.12;54.66;101726.03;5005400;28;45261;-60
2023/03/20 09:27:28;;;;;;;;;12.50;12.50;;;;;10.21;54.57;101722.56;5003838;28;45345;-57
2023/03/20 09:29:53;;;;;;;;;15.50;11.75;;;;;10.28;54.44;101711.19;5017476;28;52652;-57
2023/03/20 09:32:18;;;;;;;;;12.25;11.00;;;;;10.38;54.44;101713.00;5016536;28;45261;-58
2023/03/20 09:34:44;;;;;;;;;11.75;11.75;;;;;10.45;54.32;101716.50;5018196;28;45265;-60
2023/03/20 09:37:09;;;;;;;;;15.50;11.00;;;;;10.57;54.34;101713.91;5017721;28;45315;-57
2023/03/20 09:39:34;;;;;;;;;14.50;12.75;;;;;10.67;54.40;101709.53;5017618;28;45172;-57
2023/03/20 09:42:18;;;;;;;;;9.50;9.00;;;;;10.79;54.48;101707.78;5010507;28;45200;-57
2023/03/20 09:45:05;;;;;;;;;11.25;11.25;;;;;10.93;54.37;101713.94;4999166;28;45469;-57
2023/03/20 09:47:34;;;;;;;;;11.50;8.75;;;;;11.09;54.31;101722.69;5002451;28;45663;-57
2023/03/20 09:50:24;;;;;;;;;10.25;9.25;;;;;11.25;54.20;101713.03;5006138;28;45399;-58
2023/03/20 09:53:08;;;;;;;;;14.25;12.50;;;;;11.41;54.42;101715.63;5012384;28;45474;-57
2023/03/20 09:55:39;;;;;;;;;9.00;7.50;;;;;11.54;54.37;101709.47;4989916;28;45323;-58
2023/03/20 09:58:22;;;;;;;;;9.00;9.00;;;;;11.71;54.21;101715.56;5015008;28;45256;-58
2023/03/20 10:00:47;;;;;;;;;7.25;6.50;;;;;11.87;54.18;101718.13;5048521;28;47884;-58
2023/03/20 10:03:15;;;;;;;;;7.50;6.25;;;;;12.01;54.00;101720.72;5017459;28;45385;-58
2023/03/20 10:05:52;;;;;;;;;5.00;4.00;;;;;12.13;53.84;101717.16;5017427;28;45223;-58
2023/03/20 10:08:22;;;;;;;;;9.75;7.50;;;;;12.26;53.98;101721.47;5017294;28;45238;-58
2023/03/20 10:11:03;;;;;;;;;7.75;7.00;;;;;12.37;53.68;101710.00;5016841;28;46374;-58
2023/03/20 10:13:34;;;;;;;;;8.25;8.25;;;;;12.46;53.81;101716.06;5017331;28;45239;-58
2023/03/20 10:16:06;;;;;;;;;8.00;5.00;;;;;12.54;53.90;101700.25;5017121;28;45303;-58
2023/03/20 10:18:37;;;;;;;;;8.25;6.00;;;;;12.62;53.61;101702.81;5017080;28;45286;-58
2023/03/20 10:21:12;;;;;;;;;9.00;9.00;;;;;12.74;53.37;101709.75;5017142;28;45203;-58
2023/03/20 10:24:00;;;;;;;;;6.25;6.25;;;;;12.83;54.01;101702.63;5016887;28;45471;-58
2023/03/20 10:26:27;;;;;;;;;9.00;8.00;;;;;12.93;53.70;101703.44;5013633;28;45306;-58
2023/03/20 10:28:52;;;;;;;;;5.75;5.75;;;;;13.05;53.20;101705.09;5016840;28;45336;-59
2023/03/20 10:31:33;;;;;;;;;6.00;6.00;;;;;13.12;53.27;101698.88;5016956;28;46123;-58
2023/03/20 10:34:05;;;;;;;;;7.25;6.25;;;;;13.21;53.39;101705.81;5017239;28;45228;-58
2023/03/20 10:36:46;;;;;;;;;9.25;7.00;;;;;13.25;53.38;101704.03;5016947;28;45248;-58
2023/03/20 10:39:32;;;;;;;;;5.00;4.50;;;;;13.31;53.05;101704.84;5016589;28;45409;-58
2023/03/20 10:42:01;;;;;;;;;6.75;6.25;;;;;13.42;52.81;101698.59;5011175;28;45582;-58
2023/03/20 10:44:39;;;;;;;;;7.25;6.50;;;;;13.48;53.29;101688.84;5003056;28;45157;-58
2023/03/20 10:47:08;;;;;;;;;4.50;3.25;;;;;13.54;52.96;101695.81;5016720;28;45284;-58
2023/03/20 10:49:45;;;;;;;;;8.75;5.25;;;;;13.61;53.10;101700.16;5016453;28;45562;-58
2023/03/20 10:52:16;;;;;;;;;7.00;5.00;;;;;13.71;52.85;101685.06;5016399;28;45235;-58
2023/03/20 10:54:49;;;;;;;;;7.50;5.75;;;;;13.81;52.45;101680.53;5010369;28;45251;-58
2023/03/20 10:57:23;;;;;;;;;7.00;6.00;;;;;13.88;53.14;101679.56;5000924;28;45251;-58
2023/03/20 10:59:50;;;;;;;;;6.75;5.50;;;;;13.97;52.25;101678.56;5016589;28;45249;-58
2023/03/20 11:02:18;;;;;;;;;9.75;6.00;;;;;14.09;52.94;101666.97;5016352;28;46313;-58
2023/03/20 11:04:43;;;;;;;;;6.00;5.00;;;;;14.19;52.91;101676.50;5016449;28;45467;-58
2023/03/20 11:07:09;;;;;;;;;7.00;4.00;;;;;14.32;52.84;101674.56;5016374;28;45236;-60
2023/03/20 11:09:35;;;;;;;;;4.00;4.00;;;;;14.42;52.51;101678.78;5019243;28;45572;-58
2023/03/20 11:12:01;;;;;;;;;5.00;4.00;;;;;14.59;52.28;101667.06;5019269;28;47014;-60
2023/03/20 11:14:36;;;;;;;;;4.25;4.00;;;;;14.74;52.44;101668.63;5019531;28;45278;-58
2023/03/20 11:17:03;;;;;;;;;6.00;4.00;;;;;14.87;52.63;101666.66;5019630;28;45329;-58
2023/03/20 11:19:36;;;;;;;;;5.50;5.00;;;;;15.03;52.50;101656.66;5019218;28;45460;-60
2023/03/20 11:22:21;;;;;;;;;8.00;4.00;;;;;15.22;52.57;101649.25;5019360;28;45408;-58
2023/03/20 11:24:51;;;;;;;;;4.00;4.00;;;;;15.41;52.39;101649.78;5019111;28;45456;-57
2023/03/20 11:27:25;;;;;;;;;5.00;5.00;;;;;15.64;52.68;101651.94;5019153;28;45246;-60